Brownstown, MI

11:50 AM EDT on September 30, 2014 (GMT -0400)
HuronWoods 1 | Change Station
CLOSE
Current Station
Personal Weather Stations
Location: Flat Rock, MI
Elevation: 591 ft
Nearby Weather Stations

Elev 591 ft 42.08 °N, 83.27 °W | Updated 2 minutes ago

Utando wa mawingu
Utando wa mawingu
56.8 °F
Feels Like 56.8 °F
N
2.7
Upepo Ya mabadiliko Upepo from Mashariki-Kaskazini-Mashariki (MKzM)

Leo
High -- | Low -- °F
--% Chance of Precip.
Yesterday
High -- | Low -- °F
Precip. -- nchi
7:29 AM 7:16 PM
Waxing Crescent, 37% visible
Shinikizo 29.95 nchi
Mwangaza 10.0 meli
Clouds Mawingu sehemu nyingi 1500 ft
Utando wa mawingu 2200 ft
Kilele cha umande 53 °F
Unyevu 88%
Rainfall 0.74 nchi
Snow Depth Not available.
UV 1 out of 12
Pollen 1.00 out of 12
Ozone Good
PM2.5 Good
Flu Activity Not available.
METAR KONZ 301534Z AUTO 33005KT 10SM BKN015 OVC022 13/11 A2995 RMK AO2

More Conditions Fewer Conditions

Shinikizo 29.95 nchi
Mwangaza 10.0 meli
Clouds Mawingu sehemu nyingi 1500 ft
Utando wa mawingu 2200 ft
Kilele cha umande 53 °F
Unyevu 88%
Rainfall 0.74 nchi
Snow Depth Not available.
UV 1 out of 12
Pollen 1.00 out of 12
Ozone Good
PM2.5 Good
Flu Activity Not available.
METAR KONZ 301534Z AUTO 33005KT 10SM BKN015 OVC022 13/11 A2995 RMK AO2

More Conditions Fewer Conditions

10-Day Weather Forecast

Almanac

Astronomy

Sep. 30, 2014 Rise Set
Actual Time 7:29 AM EDT 7:16 PM EDT
Civil Twilight 7:01 AM EDT 7:44 PM EDT
Nautical Twilight 6:28 AM EDT 8:16 PM EDT
Astronomical Twilight 5:55 AM EDT 8:49 PM EDT
Moon 1:40 PM EDT 11:40 PM EDT
Length Of Visible Light 12h 43m
Length of Day
11h 47m
Tomorrow will be 2m 49s shorter.
Waxing Crescent, 37% of the Moon is Illuminated
Leo
Waxing Crescent
Oct 1
First Quarter
Oct 8
Full
Oct 15
Last Quarter
Oct 23
New

Today's Extremes

State Highs State Lows

Community

WunderPhotos

Upload Photos

1,757,671 photos uploaded!

Nearby

Air Quality

  Air Quality AQ Index Pollutant
Yesterday Good
PM10
Yesterday Moderate
OZONE
Current Good
PM2.5
Current Good
OZONE
Jumanne Good
OZONE
Jumanne Good
PM2.5
Jumatano Moderate
PM2.5
Jumatano Good
OZONE
Alhamisi Moderate
PM2.5
Alhamisi Good
OZONE
Ijumaa Good
OZONE
Ijumaa Good
PM2.5
Jumamosi Good
OZONE
Jumamosi Good
PM2.5

Snow Depth

Station Depth Elevation
No new snow has been reported.

Earthquake Activity

City Distance Mag. Time & Date
No recent earthquake activity has been reported nearby.
Minimum magnitude displayed is 2.5.

Coastal Water Temperatures

Mahali Hali ya Hewa
Marblehead, OH 64.9 °F

Nearby Weather Stations